Time;durP1;ratioP1;P1;durP2;ratioP2;P2;SDS_P1;SDS_P2;PMS_P1;PMS_P2;Temp;Humidity;BMP_temperature;BMP_pressure;BME280_temperature;BME280_humidity;BME280_pressure;Samples;Min_cycle;Max_cycle;Signal;HPM_P1;HPM_P2
2022/01/09 00:02:22;;;;;;;;;;;4.90;83.30;;;;;;5028207;28;84035;-43
2022/01/09 00:04:48;;;;;;;;;;;5.00;83.40;;;;;;5027278;28;85960;-43
2022/01/09 00:07:13;;;;;;;;;;;5.00;83.40;;;;;;5028318;28;82083;-43
2022/01/09 00:09:44;;;;;;;;;;;4.90;83.30;;;;;;5028371;28;84219;-43
2022/01/09 00:12:09;;;;;;;;;;;4.90;83.20;;;;;;5028094;28;85185;-43
2022/01/09 00:14:35;;;;;;;;;;;5.00;83.10;;;;;;5028179;28;82102;-43
2022/01/09 00:17:00;;;;;;;;;;;4.90;83.30;;;;;;5028151;28;83813;-43
2022/01/09 00:19:26;;;;;;;;;;;4.90;83.30;;;;;;5030457;28;84907;-43
2022/01/09 00:21:51;;;;;;;;;;;5.00;83.40;;;;;;5028625;28;83737;-43
2022/01/09 00:24:17;;;;;;;;;;;4.90;83.30;;;;;;5027579;28;84669;-43
2022/01/09 00:26:43;;;;;;;;;;;4.90;83.30;;;;;;5027915;28;82076;-43
2022/01/09 00:29:10;;;;;;;;;;;4.90;83.20;;;;;;5027658;28;82658;-43
2022/01/09 00:31:36;;;;;;;;;;;4.90;83.30;;;;;;5027981;28;84523;-43
2022/01/09 00:34:01;;;;;;;;;;;5.00;83.30;;;;;;5026393;28;82085;-43
2022/01/09 00:36:27;;;;;;;;;;;4.90;83.30;;;;;;5027605;28;84291;-43
2022/01/09 00:38:52;;;;;;;;;;;4.90;83.50;;;;;;5027566;28;84639;-43
2022/01/09 00:41:18;;;;;;;;;;;4.90;83.50;;;;;;5029457;28;82083;-43
2022/01/09 00:43:44;;;;;;;;;;;4.90;83.50;;;;;;5026988;28;83616;-43
2022/01/09 00:46:09;;;;;;;;;;;5.00;83.30;;;;;;5028107;28;81267;-43
2022/01/09 00:48:35;;;;;;;;;;;4.90;83.30;;;;;;5027663;28;83189;-43
2022/01/09 00:51:01;;;;;;;;;;;4.90;83.40;;;;;;5027561;28;84785;-43
2022/01/09 00:53:27;;;;;;;;;;;4.90;83.40;;;;;;5026834;28;82968;-43
2022/01/09 00:55:52;;;;;;;;;;;4.90;83.30;;;;;;5027750;28;83938;-43
2022/01/09 00:58:18;;;;;;;;;;;4.90;83.30;;;;;;5027230;28;84497;-43
2022/01/09 01:00:43;;;;;;;;;;;4.90;84.00;;;;;;5027588;28;82106;-43
2022/01/09 01:03:09;;;;;;;;;;;4.90;83.30;;;;;;5029733;28;83837;-43
2022/01/09 01:05:34;;;;;;;;;;;4.90;83.30;;;;;;5027342;28;81834;-43
2022/01/09 01:08:00;;;;;;;;;;;4.90;83.40;;;;;;5027239;28;83688;-43
2022/01/09 01:10:25;;;;;;;;;;;4.90;83.30;;;;;;5027635;28;83806;-43
2022/01/09 01:12:51;;;;;;;;;;;4.90;83.40;;;;;;5027453;28;82072;-43
2022/01/09 01:15:17;;;;;;;;;;;4.80;83.40;;;;;;5027247;28;83918;-43
2022/01/09 01:17:42;;;;;;;;;;;4.80;83.50;;;;;;5026362;28;84944;-43
2022/01/09 01:20:08;;;;;;;;;;;4.90;83.50;;;;;;5026954;28;82086;-43
2022/01/09 01:22:34;;;;;;;;;;;4.90;83.50;;;;;;5029673;28;83526;-43
2022/01/09 01:25:01;;;;;;;;;;;4.80;83.50;;;;;;5027114;28;82170;-43
2022/01/09 01:27:27;;;;;;;;;;;4.80;83.70;;;;;;5026987;28;82782;-43
2022/01/09 01:29:52;;;;;;;;;;;4.80;83.40;;;;;;5026955;28;84253;-43
2022/01/09 01:32:18;;;;;;;;;;;4.80;83.50;;;;;;5027042;28;82002;-43
2022/01/09 01:34:44;;;;;;;;;;;4.80;83.70;;;;;;5027084;28;84241;-43
2022/01/09 01:37:09;;;;;;;;;;;4.80;83.60;;;;;;5026722;28;84970;-43
2022/01/09 01:39:35;;;;;;;;;;;4.90;83.50;;;;;;5026873;28;82047;-43
2022/01/09 01:42:00;;;;;;;;;;;4.90;83.50;;;;;;5026015;28;84286;-43
2022/01/09 01:44:36;;;;;;;;;;;4.90;83.50;;;;;;5029280;28;84689;-43
2022/01/09 01:47:02;;;;;;;;;;;4.80;83.60;;;;;;5026852;28;83765;-43
2022/01/09 01:49:28;;;;;;;;;;;4.80;83.70;;;;;;5025197;28;86128;-43
2022/01/09 01:51:54;;;;;;;;;;;4.80;83.50;;;;;;5026807;28;81989;-43
2022/01/09 01:54:20;;;;;;;;;;;4.80;83.40;;;;;;5026378;28;83701;-43
2022/01/09 01:56:45;;;;;;;;;;;4.80;83.40;;;;;;5026324;28;84222;-43
2022/01/09 01:59:11;;;;;;;;;;;4.90;83.70;;;;;;5027006;28;81437;-43
2022/01/09 02:01:37;;;;;;;;;;;4.80;83.50;;;;;;5026614;28;82869;-43
2022/01/09 02:04:05;;;;;;;;;;;4.80;83.60;;;;;;5026010;28;84338;-43
2022/01/09 02:06:32;;;;;;;;;;;4.80;83.40;;;;;;5028653;28;82927;-43
2022/01/09 02:08:58;;;;;;;;;;;4.80;83.60;;;;;;5026272;28;84474;-43
2022/01/09 02:11:23;;;;;;;;;;;4.80;83.70;;;;;;5026480;28;81675;-43
2022/01/09 02:13:49;;;;;;;;;;;4.80;83.70;;;;;;5026569;28;82955;-43
2022/01/09 02:16:18;;;;;;;;;;;4.80;83.60;;;;;;5026128;28;84423;-43
2022/01/09 02:18:47;;;;;;;;;;;4.80;83.60;;;;;;5026102;28;82115;-43
2022/01/09 02:21:13;;;;;;;;;;;4.80;83.80;;;;;;5026443;28;84100;-43
2022/01/09 02:23:41;;;;;;;;;;;4.80;83.50;;;;;;5026808;28;84191;-43
2022/01/09 02:26:07;;;;;;;;;;;4.80;83.60;;;;;;5026359;28;81840;-43
2022/01/09 02:28:32;;;;;;;;;;;4.80;83.70;;;;;;5028974;28;84107;-43
2022/01/09 02:30:58;;;;;;;;;;;4.80;83.40;;;;;;5025604;28;82954;-43
2022/01/09 02:33:23;;;;;;;;;;;4.80;83.60;;;;;;5025995;28;84921;-43
2022/01/09 02:35:51;;;;;;;;;;;4.80;83.90;;;;;;5026031;28;84660;-43
2022/01/09 02:38:17;;;;;;;;;;;4.80;83.50;;;;;;5025983;28;82094;-43
2022/01/09 02:40:42;;;;;;;;;;;4.80;83.70;;;;;;5026092;28;82753;-43
2022/01/09 02:43:08;;;;;;;;;;;4.80;83.60;;;;;;5025784;28;83905;-43
2022/01/09 02:45:33;;;;;;;;;;;4.70;83.80;;;;;;5026083;28;82072;-43
2022/01/09 02:48:02;;;;;;;;;;;4.70;83.90;;;;;;5026357;28;82848;-43
2022/01/09 02:50:38;;;;;;;;;;;4.80;83.80;;;;;;5028527;28;84345;-43
2022/01/09 02:53:15;;;;;;;;;;;4.70;84.00;;;;;;5026002;28;84178;-43
2022/01/09 02:55:41;;;;;;;;;;;4.70;83.80;;;;;;5025174;28;84605;-43
2022/01/09 02:58:07;;;;;;;;;;;4.80;83.90;;;;;;5025969;28;82091;-43
2022/01/09 03:00:33;;;;;;;;;;;4.70;83.70;;;;;;5025523;28;83734;-43
2022/01/09 03:02:59;;;;;;;;;;;4.70;83.70;;;;;;5025652;28;84534;-43
2022/01/09 03:05:25;;;;;;;;;;;4.80;83.60;;;;;;5026868;28;82202;-43
2022/01/09 03:07:51;;;;;;;;;;;4.80;83.60;;;;;;5029274;28;83853;-43
2022/01/09 03:10:18;;;;;;;;;;;4.70;83.60;;;;;;5028981;28;84766;-43
2022/01/09 03:12:44;;;;;;;;;;;4.70;83.80;;;;;;5032046;28;81161;-43
2022/01/09 03:15:10;;;;;;;;;;;4.70;83.80;;;;;;5028740;28;84552;-43
2022/01/09 03:17:36;;;;;;;;;;;4.80;83.80;;;;;;5029416;28;82117;-43
2022/01/09 03:20:03;;;;;;;;;;;4.80;83.80;;;;;;5028463;28;83712;-43
2022/01/09 03:22:28;;;;;;;;;;;4.70;83.70;;;;;;5028582;28;85929;-43
2022/01/09 03:24:55;;;;;;;;;;;4.80;83.70;;;;;;5028883;28;81988;-43
2022/01/09 03:27:20;;;;;;;;;;;4.80;83.70;;;;;;5028857;28;82925;-43
2022/01/09 03:29:46;;;;;;;;;;;4.70;83.80;;;;;;5028594;28;83737;-43
2022/01/09 03:32:11;;;;;;;;;;;4.70;83.90;;;;;;5031489;28;82100;-43
2022/01/09 03:34:38;;;;;;;;;;;4.70;83.90;;;;;;5028725;28;84446;-43
2022/01/09 03:37:04;;;;;;;;;;;4.70;84.00;;;;;;5029320;28;81318;-43
2022/01/09 03:39:29;;;;;;;;;;;4.70;83.80;;;;;;5028767;28;83307;-43
2022/01/09 03:41:58;;;;;;;;;;;4.70;83.80;;;;;;5028062;28;84526;-43
2022/01/09 03:44:24;;;;;;;;;;;4.70;84.00;;;;;;5027528;28;83050;-43
2022/01/09 03:46:49;;;;;;;;;;;4.70;83.80;;;;;;5028463;28;84556;-43
2022/01/09 03:49:15;;;;;;;;;;;4.70;83.80;;;;;;5028232;28;84555;-43
2022/01/09 03:51:44;;;;;;;;;;;4.80;83.80;;;;;;5028516;28;82067;-43
2022/01/09 03:54:09;;;;;;;;;;;4.70;84.00;;;;;;5031316;28;83116;-43
2022/01/09 03:56:35;;;;;;;;;;;4.70;83.80;;;;;;5028499;28;82104;-43
2022/01/09 03:59:00;;;;;;;;;;;4.70;83.80;;;;;;5028230;28;84320;-43
2022/01/09 04:01:26;;;;;;;;;;;4.70;83.80;;;;;;5028735;28;83850;-43
2022/01/09 04:03:51;;;;;;;;;;;4.70;83.70;;;;;;5028199;28;81984;-43
2022/01/09 04:06:17;;;;;;;;;;;4.70;84.10;;;;;;5028424;28;83749;-43
2022/01/09 04:08:43;;;;;;;;;;;4.70;83.90;;;;;;5027418;28;85201;-43
2022/01/09 04:11:09;;;;;;;;;;;4.70;83.80;;;;;;5028166;28;81899;-43
2022/01/09 04:13:35;;;;;;;;;;;4.70;84.00;;;;;;5028016;28;83361;-43
2022/01/09 04:16:01;;;;;;;;;;;4.70;84.00;;;;;;5030704;28;82884;-43
2022/01/09 04:18:28;;;;;;;;;;;4.60;83.90;;;;;;5028090;28;82978;-43
2022/01/09 04:20:54;;;;;;;;;;;4.70;84.00;;;;;;5027884;28;84450;-43
2022/01/09 04:23:21;;;;;;;;;;;4.60;84.00;;;;;;5027818;28;82092;-43
2022/01/09 04:25:47;;;;;;;;;;;4.60;84.00;;;;;;5028414;28;84094;-43
2022/01/09 04:28:13;;;;;;;;;;;4.60;84.10;;;;;;5027494;28;85017;-43
2022/01/09 04:30:39;;;;;;;;;;;4.70;83.80;;;;;;5028120;28;82069;-43
2022/01/09 04:33:05;;;;;;;;;;;4.60;83.70;;;;;;5027342;28;83265;-43
2022/01/09 04:35:30;;;;;;;;;;;4.60;84.00;;;;;;5027541;28;84423;-43
2022/01/09 04:37:56;;;;;;;;;;;4.60;84.00;;;;;;5030486;28;82038;-43
2022/01/09 04:40:22;;;;;;;;;;;4.70;83.90;;;;;;5026928;28;83366;-43
2022/01/09 04:45:17;;;;;;;;;;;4.70;83.80;;;;;;5027784;28;82539;-43
2022/01/09 04:47:46;;;;;;;;;;;4.60;83.90;;;;;;5027373;28;85122;-43
2022/01/09 04:50:17;;;;;;;;;;;4.70;83.90;;;;;;5026843;28;81431;-43
2022/01/09 04:52:43;;;;;;;;;;;4.60;83.90;;;;;;5027728;28;83462;-43
2022/01/09 04:55:09;;;;;;;;;;;4.70;84.00;;;;;;5027258;28;84176;-43
2022/01/09 04:57:34;;;;;;;;;;;4.60;83.80;;;;;;5026741;28;83100;-43
2022/01/09 05:00:00;;;;;;;;;;;4.70;84.00;;;;;;5030080;28;84970;-43
2022/01/09 05:02:25;;;;;;;;;;;4.70;83.80;;;;;;5027403;28;82053;-43
2022/01/09 05:04:51;;;;;;;;;;;4.60;84.10;;;;;;5027279;28;83981;-43
2022/01/09 05:07:16;;;;;;;;;;;4.70;83.80;;;;;;5027345;28;83143;-43
2022/01/09 05:09:42;;;;;;;;;;;4.60;84.00;;;;;;5027213;28;82065;-43
2022/01/09 05:12:08;;;;;;;;;;;4.70;83.80;;;;;;5027161;28;83828;-43
2022/01/09 05:14:33;;;;;;;;;;;4.60;84.10;;;;;;5027469;28;84461;-43
2022/01/09 05:16:59;;;;;;;;;;;4.60;83.90;;;;;;5025834;28;82046;-43
2022/01/09 05:19:28;;;;;;;;;;;4.60;83.90;;;;;;5030036;28;82851;-43
2022/01/09 05:21:55;;;;;;;;;;;4.60;83.90;;;;;;5026432;28;83150;-43
2022/01/09 05:24:20;;;;;;;;;;;4.60;83.90;;;;;;5026967;28;83795;-43
2022/01/09 05:26:46;;;;;;;;;;;4.60;83.90;;;;;;5026708;28;83771;-43
2022/01/09 05:29:11;;;;;;;;;;;4.60;84.20;;;;;;5026276;28;82061;-43
2022/01/09 05:31:37;;;;;;;;;;;4.60;84.00;;;;;;5027237;28;83756;-43
2022/01/09 05:34:02;;;;;;;;;;;4.60;84.30;;;;;;5026804;28;84119;-43
2022/01/09 05:36:28;;;;;;;;;;;4.60;84.10;;;;;;5026847;28;81954;-43
2022/01/09 05:38:53;;;;;;;;;;;4.60;84.10;;;;;;5027409;28;84201;-43
2022/01/09 05:41:19;;;;;;;;;;;4.60;84.00;;;;;;5028648;28;83807;-43
2022/01/09 05:43:44;;;;;;;;;;;4.50;84.20;;;;;;5026788;28;84427;-43
2022/01/09 05:46:11;;;;;;;;;;;4.50;84.00;;;;;;5026018;28;84550;-43
2022/01/09 05:48:36;;;;;;;;;;;4.60;84.00;;;;;;5026748;28;82002;-43
2022/01/09 05:51:02;;;;;;;;;;;4.50;84.20;;;;;;5026773;28;83759;-43
2022/01/09 05:53:27;;;;;;;;;;;4.60;84.10;;;;;;5026626;28;84671;-43
2022/01/09 05:55:53;;;;;;;;;;;4.50;84.30;;;;;;5026661;28;82167;-43
2022/01/09 05:58:18;;;;;;;;;;;4.50;84.20;;;;;;5026568;28;84060;-43
2022/01/09 06:00:44;;;;;;;;;;;4.60;84.00;;;;;;5026414;28;84966;-43
2022/01/09 06:03:10;;;;;;;;;;;4.50;83.90;;;;;;5029632;28;81237;-43
2022/01/09 06:05:35;;;;;;;;;;;4.60;84.00;;;;;;5026249;28;84473;-43
2022/01/09 06:08:01;;;;;;;;;;;4.50;84.00;;;;;;5026589;28;82006;-43
2022/01/09 06:10:27;;;;;;;;;;;4.50;84.40;;;;;;5025985;28;84382;-43
2022/01/09 06:12:52;;;;;;;;;;;4.40;84.60;;;;;;5025966;28;84351;-43
2022/01/09 06:15:18;;;;;;;;;;;4.40;84.60;;;;;;5026615;28;82114;-43
2022/01/09 06:17:44;;;;;;;;;;;4.40;84.60;;;;;;5026499;28;83760;-43
2022/01/09 06:20:11;;;;;;;;;;;4.40;84.60;;;;;;5026399;28;83488;-43
2022/01/09 06:22:36;;;;;;;;;;;4.50;84.50;;;;;;5026250;28;82006;-43
2022/01/09 06:25:02;;;;;;;;;;;4.50;84.50;;;;;;5028980;28;82919;-43
2022/01/09 06:27:28;;;;;;;;;;;4.40;84.20;;;;;;5026568;28;81353;-43
2022/01/09 06:29:54;;;;;;;;;;;4.50;84.60;;;;;;5026397;28;83516;-43
2022/01/09 06:32:19;;;;;;;;;;;4.40;84.40;;;;;;5026010;28;84879;-43
2022/01/09 06:34:45;;;;;;;;;;;4.50;84.60;;;;;;5025582;28;83192;-43
2022/01/09 06:37:12;;;;;;;;;;;4.50;84.30;;;;;;5026126;28;84391;-43
2022/01/09 06:39:38;;;;;;;;;;;4.40;84.50;;;;;;5026045;28;84312;-43
2022/01/09 06:42:04;;;;;;;;;;;4.50;84.40;;;;;;5029035;28;82154;-43
2022/01/09 06:44:29;;;;;;;;;;;4.40;84.40;;;;;;5029816;28;83936;-43
2022/01/09 06:46:55;;;;;;;;;;;4.40;84.50;;;;;;5031979;28;84582;-43
2022/01/09 06:49:20;;;;;;;;;;;4.40;84.60;;;;;;5029737;28;84103;-43
2022/01/09 06:51:46;;;;;;;;;;;4.40;84.50;;;;;;5029859;28;83683;-43
2022/01/09 06:54:13;;;;;;;;;;;4.40;84.60;;;;;;5029518;28;81929;-43
2022/01/09 06:56:39;;;;;;;;;;;4.40;84.40;;;;;;5029448;28;83891;-43
2022/01/09 06:59:05;;;;;;;;;;;4.40;84.30;;;;;;5028515;28;85428;-43
2022/01/09 07:01:30;;;;;;;;;;;4.50;84.20;;;;;;5029212;28;81931;-43
2022/01/09 07:03:56;;;;;;;;;;;4.50;84.50;;;;;;5029172;28;84116;-43
2022/01/09 07:06:21;;;;;;;;;;;4.50;84.40;;;;;;5029238;28;82332;-43
2022/01/09 07:08:47;;;;;;;;;;;4.40;84.50;;;;;;5031992;28;82090;-43
2022/01/09 07:11:12;;;;;;;;;;;4.50;84.40;;;;;;5028728;28;84907;-43
2022/01/09 07:13:38;;;;;;;;;;;4.40;84.60;;;;;;5029122;28;82057;-43
2022/01/09 07:16:03;;;;;;;;;;;4.40;84.40;;;;;;5029519;28;83668;-43
2022/01/09 07:18:29;;;;;;;;;;;4.40;84.30;;;;;;5028799;28;84714;-43
2022/01/09 07:20:54;;;;;;;;;;;4.40;84.20;;;;;;5029054;28;82128;-43
2022/01/09 07:23:20;;;;;;;;;;;4.40;84.30;;;;;;5028209;28;84671;-43
2022/01/09 07:25:45;;;;;;;;;;;4.40;84.30;;;;;;5028807;28;82956;-43
2022/01/09 07:28:11;;;;;;;;;;;4.40;84.50;;;;;;5031545;28;82032;-43
2022/01/09 07:30:37;;;;;;;;;;;4.40;84.50;;;;;;5028597;28;84591;-43
2022/01/09 07:33:04;;;;;;;;;;;4.40;84.50;;;;;;5028720;28;81932;-43
2022/01/09 07:35:30;;;;;;;;;;;4.40;84.40;;;;;;5028925;28;83877;-43
2022/01/09 07:37:56;;;;;;;;;;;4.40;84.60;;;;;;5028552;28;85079;-43
2022/01/09 07:40:21;;;;;;;;;;;4.40;84.80;;;;;;5028559;28;80986;-43
2022/01/09 07:42:47;;;;;;;;;;;4.40;84.50;;;;;;5028546;28;83193;-43
2022/01/09 07:45:14;;;;;;;;;;;4.40;84.40;;;;;;5028670;28;84698;-43
2022/01/09 07:47:39;;;;;;;;;;;4.40;84.40;;;;;;5028059;28;83020;-43
2022/01/09 07:50:06;;;;;;;;;;;4.50;84.20;;;;;;5031105;28;85113;-43
2022/01/09 07:52:35;;;;;;;;;;;4.50;84.30;;;;;;5027971;28;82072;-43
2022/01/09 07:55:02;;;;;;;;;;;4.40;84.60;;;;;;5028457;28;84120;-43
2022/01/09 07:57:28;;;;;;;;;;;4.40;84.50;;;;;;5027950;28;83713;-43
2022/01/09 07:59:56;;;;;;;;;;;4.40;84.40;;;;;;5028400;28;82135;-43
2022/01/09 08:02:22;;;;;;;;;;;4.40;84.40;;;;;;5028301;28;82966;-43
2022/01/09 08:04:47;;;;;;;;;;;4.50;84.30;;;;;;5028782;28;83992;-43
2022/01/09 08:07:13;;;;;;;;;;;4.50;84.40;;;;;;5028388;28;82140;-43
2022/01/09 08:09:39;;;;;;;;;;;4.50;84.30;;;;;;5028364;28;83379;-43
2022/01/09 08:12:05;;;;;;;;;;;4.40;84.40;;;;;;5029963;28;85530;-43
2022/01/09 08:14:31;;;;;;;;;;;4.50;84.30;;;;;;5028121;28;85027;-43
2022/01/09 08:16:56;;;;;;;;;;;4.50;84.20;;;;;;5027946;28;84277;-43
2022/01/09 08:19:22;;;;;;;;;;;4.50;84.10;;;;;;5028055;28;81892;-43
2022/01/09 08:21:47;;;;;;;;;;;4.50;83.90;;;;;;5028066;28;83650;-43
2022/01/09 08:24:14;;;;;;;;;;;4.60;84.10;;;;;;5027686;28;84931;-43
2022/01/09 08:26:40;;;;;;;;;;;4.60;84.10;;;;;;5027813;28;82119;-43
2022/01/09 08:29:05;;;;;;;;;;;4.60;84.10;;;;;;5028712;28;84319;-43
2022/01/09 08:31:31;;;;;;;;;;;4.60;84.00;;;;;;5027598;28;84971;-43
2022/01/09 08:33:56;;;;;;;;;;;4.60;83.90;;;;;;5030490;28;82018;-43
2022/01/09 08:36:22;;;;;;;;;;;4.60;83.90;;;;;;5027128;28;85415;-43
2022/01/09 08:38:48;;;;;;;;;;;4.60;83.90;;;;;;5027867;28;82069;-43
2022/01/09 08:41:14;;;;;;;;;;;4.60;83.90;;;;;;5027152;28;83782;-43
2022/01/09 08:43:39;;;;;;;;;;;4.60;84.00;;;;;;5027573;28;84511;-43
2022/01/09 08:46:05;;;;;;;;;;;4.50;84.00;;;;;;5028012;28;82236;-43
2022/01/09 08:48:31;;;;;;;;;;;4.60;84.10;;;;;;5027615;28;82889;-43
2022/01/09 08:50:56;;;;;;;;;;;4.60;84.00;;;;;;5027591;28;84543;-43
2022/01/09 08:53:22;;;;;;;;;;;4.60;84.10;;;;;;5027864;28;81386;-43
2022/01/09 08:55:47;;;;;;;;;;;4.50;84.10;;;;;;5030227;28;81779;-43
2022/01/09 08:58:13;;;;;;;;;;;4.50;84.40;;;;;;5027537;28;82120;-43
2022/01/09 09:00:38;;;;;;;;;;;4.60;84.30;;;;;;5026764;28;84046;-43
2022/01/09 09:03:04;;;;;;;;;;;4.50;84.10;;;;;;5026062;28;84447;-43
2022/01/09 09:05:30;;;;;;;;;;;4.60;84.10;;;;;;5027359;28;82124;-43
2022/01/09 09:07:57;;;;;;;;;;;4.60;84.00;;;;;;5027273;28;84311;-43
2022/01/09 09:10:23;;;;;;;;;;;4.60;83.90;;;;;;5027242;28;84682;-43
2022/01/09 09:12:49;;;;;;;;;;;4.60;83.80;;;;;;5027278;28;82082;-43
2022/01/09 09:15:14;;;;;;;;;;;4.60;83.90;;;;;;5027247;28;83882;-43
2022/01/09 09:17:40;;;;;;;;;;;4.50;84.00;;;;;;5030138;28;82988;-43
2022/01/09 09:20:06;;;;;;;;;;;4.60;84.20;;;;;;5027148;28;83024;-43
2022/01/09 09:22:31;;;;;;;;;;;4.50;84.30;;;;;;5026889;28;85434;-43
2022/01/09 09:24:57;;;;;;;;;;;4.50;84.50;;;;;;5026373;28;83013;-43
2022/01/09 09:27:29;;;;;;;;;;;4.60;84.40;;;;;;5026963;28;84964;-43
2022/01/09 09:29:56;;;;;;;;;;;4.50;84.40;;;;;;5026810;28;84534;-43
2022/01/09 09:32:22;;;;;;;;;;;4.50;84.00;;;;;;5027020;28;82078;-43
2022/01/09 09:34:47;;;;;;;;;;;4.60;84.10;;;;;;5027017;28;84272;-43
2022/01/09 09:37:13;;;;;;;;;;;4.60;83.90;;;;;;5029640;28;84766;-43
2022/01/09 09:39:38;;;;;;;;;;;4.50;84.00;;;;;;5026697;28;83926;-43
2022/01/09 09:42:04;;;;;;;;;;;4.60;84.40;;;;;;5027206;28;82815;-43
2022/01/09 09:44:29;;;;;;;;;;;4.60;84.00;;;;;;5026782;28;82066;-43
2022/01/09 09:46:56;;;;;;;;;;;4.60;84.00;;;;;;5027150;28;84030;-43
2022/01/09 09:49:22;;;;;;;;;;;4.60;84.10;;;;;;5026301;28;83861;-43
2022/01/09 09:51:47;;;;;;;;;;;4.60;84.20;;;;;;5026768;28;82088;-43
2022/01/09 09:54:13;;;;;;;;;;;4.70;84.10;;;;;;5026648;28;83794;-43
2022/01/09 09:56:39;;;;;;;;;;;4.70;84.10;;;;;;5026512;28;84330;-43
2022/01/09 09:59:04;;;;;;;;;;;4.70;84.20;;;;;;5029372;28;82141;-43
2022/01/09 10:01:31;;;;;;;;;;;4.60;84.30;;;;;;5026499;28;84645;-43
2022/01/09 10:03:59;;;;;;;;;;;4.60;84.10;;;;;;5026660;28;82089;-43
2022/01/09 10:06:35;;;;;;;;;;;4.60;84.20;;;;;;5026969;28;84159;-43
2022/01/09 10:09:08;;;;;;;;;;;4.60;84.30;;;;;;5026104;28;84483;-43
2022/01/09 10:11:41;;;;;;;;;;;4.60;84.10;;;;;;5026758;28;82073;-43
2022/01/09 10:14:10;;;;;;;;;;;4.70;84.60;;;;;;5026281;28;84287;-43
2022/01/09 10:16:36;;;;;;;;;;;4.70;84.40;;;;;;5029662;28;84195;-43
2022/01/09 10:19:01;;;;;;;;;;;4.70;84.40;;;;;;5029912;28;82105;-43
2022/01/09 10:21:27;;;;;;;;;;;4.70;84.90;;;;;;5032364;28;84034;-43
2022/01/09 10:23:56;;;;;;;;;;;4.70;85.10;;;;;;5029813;28;82094;-43
2022/01/09 10:26:22;;;;;;;;;;;4.70;85.40;;;;;;5062739;27;84307;-43
2022/01/09 10:28:47;;;;;;;;;;;4.70;85.10;;;;;;5026498;28;87312;-43
2022/01/09 10:31:15;;;;;;;;;;;4.70;84.80;;;;;;5026770;28;86422;-43
2022/01/09 10:33:41;;;;;;;;;;;4.70;85.30;;;;;;5026509;28;88071;-43
2022/01/09 10:36:07;;;;;;;;;;;4.80;85.10;;;;;;5026009;28;89726;-43
2022/01/09 10:38:33;;;;;;;;;;;4.80;85.50;;;;;;5025990;28;88112;-43
2022/01/09 10:41:03;;;;;;;;;;;4.80;85.40;;;;;;5026227;28;89830;-43
2022/01/09 10:43:40;;;;;;;;;;;4.80;85.30;;;;;;5028560;28;89316;-43
2022/01/09 10:46:05;;;;;;;;;;;4.80;85.40;;;;;;5026266;28;88045;-43
2022/01/09 10:48:38;;;;;;;;;;;4.80;85.10;;;;;;5025885;28;89180;-43
2022/01/09 10:51:05;;;;;;;;;;;4.80;85.60;;;;;;5026133;28;87152;-43
2022/01/09 10:53:31;;;;;;;;;;;4.80;85.60;;;;;;5026127;28;88651;-43
2022/01/09 10:56:03;;;;;;;;;;;4.90;85.50;;;;;;5026229;28;88996;-43
2022/01/09 10:58:29;;;;;;;;;;;4.90;85.40;;;;;;5026022;28;87160;-43
2022/01/09 11:01:14;;;;;;;;;;;4.90;85.70;;;;;;5025946;28;88867;-43
2022/01/09 11:03:41;;;;;;;;;;;4.90;85.50;;;;;;5024732;28;90314;-43
2022/01/09 11:06:07;;;;;;;;;;;4.90;85.50;;;;;;5028866;28;87021;-43
2022/01/09 11:08:34;;;;;;;;;;;4.90;85.60;;;;;;5025429;28;89577;-43
2022/01/09 11:11:00;;;;;;;;;;;5.00;85.60;;;;;;5025734;28;86930;-43
2022/01/09 11:13:26;;;;;;;;;;;5.00;85.50;;;;;;5025753;28;88858;-43
2022/01/09 11:18:38;;;;;;;;;;;5.00;85.70;;;;;;5023648;28;86891;-43
2022/01/09 11:21:03;;;;;;;;;;;5.00;85.80;;;;;;5026144;28;88773;-43
2022/01/09 11:23:34;;;;;;;;;;;5.00;85.40;;;;;;5025011;28;89876;-43
2022/01/09 11:26:01;;;;;;;;;;;5.00;85.90;;;;;;5024771;28;86904;-43
2022/01/09 11:28:30;;;;;;;;;;;5.00;85.90;;;;;;5027510;28;88737;-43
2022/01/09 11:31:19;;;;;;;;;;;5.10;85.90;;;;;;5025521;28;86873;-43
2022/01/09 11:34:03;;;;;;;;;;;5.00;85.80;;;;;;5027081;27;89196;-43
2022/01/09 11:36:49;;;;;;;;;;;5.00;85.90;;;;;;5025060;28;89688;-43
2022/01/09 11:39:20;;;;;;;;;;;5.10;85.90;;;;;;5033706;28;87126;-43
2022/01/09 11:42:04;;;;;;;;;;;5.10;85.90;;;;;;5024918;28;88937;-43
2022/01/09 11:44:30;;;;;;;;;;;5.10;85.90;;;;;;5024770;28;89383;-43
2022/01/09 11:47:03;;;;;;;;;;;5.10;86.00;;;;;;5025818;28;86376;-43
2022/01/09 11:49:36;;;;;;;;;;;5.10;86.60;;;;;;5027714;28;88264;-43
2022/01/09 11:52:01;;;;;;;;;;;5.10;86.10;;;;;;5025310;28;86939;-43
2022/01/09 11:54:28;;;;;;;;;;;5.10;86.10;;;;;;5024760;28;89117;-43
2022/01/09 11:57:08;;;;;;;;;;;5.10;86.00;;;;;;5024611;28;89307;-43
2022/01/09 11:59:34;;;;;;;;;;;5.10;86.10;;;;;;5025135;28;86862;-43
2022/01/09 12:02:06;;;;;;;;;;;5.20;85.90;;;;;;5024726;28;88871;-43
2022/01/09 12:04:34;;;;;;;;;;;5.20;86.00;;;;;;5024625;28;89607;-43
2022/01/09 12:07:01;;;;;;;;;;;5.20;85.90;;;;;;5024955;28;87130;-43
2022/01/09 12:09:32;;;;;;;;;;;5.20;85.90;;;;;;5024821;28;88982;-43
2022/01/09 12:12:11;;;;;;;;;;;5.20;85.90;;;;;;5027956;28;88307;-43
2022/01/09 12:14:53;;;;;;;;;;;5.20;85.90;;;;;;5024769;28;87002;-43
2022/01/09 12:17:26;;;;;;;;;;;5.20;85.90;;;;;;5024632;28;89723;-43
2022/01/09 12:20:10;;;;;;;;;;;5.20;86.00;;;;;;5023987;28;88045;-43
2022/01/09 12:22:50;;;;;;;;;;;5.20;85.90;;;;;;5024669;28;89883;-43
2022/01/09 12:25:22;;;;;;;;;;;5.20;86.00;;;;;;5024386;28;89284;-43
2022/01/09 12:27:53;;;;;;;;;;;5.20;86.00;;;;;;5024474;28;87157;-43
2022/01/09 12:30:46;;;;;;;;;;;5.20;85.90;;;;;;5024709;28;88996;-43
2022/01/09 12:33:15;;;;;;;;;;;5.20;86.00;;;;;;5024532;27;89395;-43
2022/01/09 12:35:46;;;;;;;;;;;5.30;86.20;;;;;;5027348;28;87119;-43
2022/01/09 12:38:18;;;;;;;;;;;5.30;86.20;;;;;;5024660;28;88646;-43
2022/01/09 12:40:45;;;;;;;;;;;5.20;86.20;;;;;;5024279;28;87089;-43
2022/01/09 12:43:10;;;;;;;;;;;5.30;86.20;;;;;;5024343;28;89102;-43
2022/01/09 12:45:37;;;;;;;;;;;5.20;86.30;;;;;;5023426;28;89336;-43
2022/01/09 12:48:04;;;;;;;;;;;5.20;86.40;;;;;;5024245;28;87106;-43
2022/01/09 12:50:29;;;;;;;;;;;5.30;86.30;;;;;;5024698;28;86830;-43
2022/01/09 12:53:33;;;;;;;;;;;5.30;86.20;;;;;;5023828;28;89766;-43
2022/01/09 12:56:02;;;;;;;;;;;5.30;86.20;;;;;;5042114;28;87155;-43
2022/01/09 12:58:29;;;;;;;;;;;5.30;86.30;;;;;;5044266;28;88751;-43
2022/01/09 13:00:54;;;;;;;;;;;5.30;86.00;;;;;;5033040;28;87106;-43
2022/01/09 13:03:21;;;;;;;;;;;5.20;86.30;;;;;;5024462;28;88740;-43
2022/01/09 13:05:56;;;;;;;;;;;5.30;86.30;;;;;;5023594;28;89434;-43
2022/01/09 13:08:21;;;;;;;;;;;5.30;86.30;;;;;;5023905;28;87118;-43
2022/01/09 13:10:54;;;;;;;;;;;5.30;86.30;;;;;;5023476;28;88804;-43
2022/01/09 13:13:22;;;;;;;;;;;5.30;86.30;;;;;;5023753;28;89963;-43
2022/01/09 13:15:47;;;;;;;;;;;5.30;86.30;;;;;;5024040;28;87107;-43
2022/01/09 13:18:13;;;;;;;;;;;5.30;86.50;;;;;;5024045;28;89174;-43
2022/01/09 13:20:38;;;;;;;;;;;5.30;86.60;;;;;;5026285;28;89797;-43
2022/01/09 13:23:09;;;;;;;;;;;5.40;86.60;;;;;;5023851;28;89271;-45
2022/01/09 13:25:41;;;;;;;;;;;5.30;87.90;;;;;;5023236;28;88649;-46
2022/01/09 13:28:06;;;;;;;;;;;5.40;87.50;;;;;;5024140;28;86445;-42
2022/01/09 13:30:32;;;;;;;;;;;5.60;87.70;;;;;;5023676;28;87806;-43
2022/01/09 13:33:01;;;;;;;;;;;5.60;87.50;;;;;;5023128;28;89607;-44
2022/01/09 13:35:27;;;;;;;;;;;5.60;87.50;;;;;;5023082;28;88029;-43
2022/01/09 13:37:56;;;;;;;;;;;5.50;88.30;;;;;;5023498;28;90123;-43
2022/01/09 13:40:22;;;;;;;;;;;5.40;88.50;;;;;;5022808;28;88569;-43
2022/01/09 13:42:47;;;;;;;;;;;5.30;88.80;;;;;;5026307;28;86792;-43
2022/01/09 13:45:16;;;;;;;;;;;5.30;88.70;;;;;;5023038;28;89709;-44
2022/01/09 13:47:43;;;;;;;;;;;5.40;88.30;;;;;;5023482;28;86926;-43
2022/01/09 13:50:11;;;;;;;;;;;5.40;87.90;;;;;;5022978;28;88068;-44
2022/01/09 13:52:37;;;;;;;;;;;5.50;87.80;;;;;;5023449;28;88095;-43
2022/01/09 13:55:02;;;;;;;;;;;5.60;87.30;;;;;;5023417;28;87062;-43
2022/01/09 13:57:28;;;;;;;;;;;5.50;87.40;;;;;;5023399;28;89282;-43
2022/01/09 13:59:55;;;;;;;;;;;5.50;86.90;;;;;;5022146;28;90540;-43
2022/01/09 14:02:22;;;;;;;;;;;5.50;87.00;;;;;;5026240;28;87155;-43
2022/01/09 14:05:08;;;;;;;;;;;5.50;87.00;;;;;;5022679;28;89487;-43
2022/01/09 14:07:36;;;;;;;;;;;5.50;87.30;;;;;;5023030;27;87124;-43
2022/01/09 14:10:02;;;;;;;;;;;5.50;87.30;;;;;;5023143;28;89177;-43
2022/01/09 14:12:28;;;;;;;;;;;5.50;86.90;;;;;;5022624;28;90437;-43
2022/01/09 14:14:54;;;;;;;;;;;5.50;87.30;;;;;;5023077;28;87182;-43
2022/01/09 14:17:33;;;;;;;;;;;5.60;87.20;;;;;;5023476;28;89111;-43
2022/01/09 14:20:17;;;;;;;;;;;5.60;87.30;;;;;;5022435;28;89936;-43
2022/01/09 14:22:43;;;;;;;;;;;5.60;87.00;;;;;;5023222;28;86900;-43
2022/01/09 14:25:12;;;;;;;;;;;5.60;87.20;;;;;;5024813;28;88631;-43
2022/01/09 14:27:46;;;;;;;;;;;5.60;86.90;;;;;;5023066;28;87216;-43
2022/01/09 14:30:18;;;;;;;;;;;5.60;87.20;;;;;;5022927;28;88909;-43
2022/01/09 14:32:44;;;;;;;;;;;5.60;87.10;;;;;;5022552;28;89742;-43
2022/01/09 14:35:24;;;;;;;;;;;5.60;87.10;;;;;;5022834;28;87166;-43
2022/01/09 14:37:49;;;;;;;;;;;5.60;87.20;;;;;;5022765;28;89382;-43